UAE526 OMDB-VOHS
Flight info
| Callsign | UAE526 |
|---|---|
| Flight time | N/A |
| Altitude | 39000 |
| Route | IVURO M677 LALDO B505 NADSO A777 VAXIM P307 PARAR N571 SUGID DCT AROTA DCT BBB W28 PONIP NAMSA8 |
| Aircraft | B77W/H-SDE1E2E3FGHIJ2J3J4J5M1RWXY/LB1D1 |
Departure
| Time | N/A |
|---|---|
| Airport | Dubai International Airport (OMDB) |
Arrival
| Time | 2026-05-06 14:21 |
|---|---|
| Airport | Rajiv Gandhi International Airport (VOHS) |
| Time | Latitude | Longitude | Altitude | Speed | Heading |
|---|---|---|---|---|---|
| 2026-05-06 12:59 | 20.05406 | 68.29640 | 38818 ft | 499 kts | 117° |
| 2026-05-06 13:00 | 20.02283 | 68.36240 | 38821 ft | 500 kts | 117° |
| 2026-05-06 13:00 | 19.99155 | 68.42839 | 38815 ft | 500 kts | 117° |
| 2026-05-06 13:01 | 19.96019 | 68.49449 | 38829 ft | 500 kts | 117° |
| 2026-05-06 13:01 | 19.92881 | 68.56055 | 38820 ft | 500 kts | 117° |
| 2026-05-06 13:02 | 19.89759 | 68.62620 | 38818 ft | 500 kts | 117° |
| 2026-05-06 13:02 | 19.86623 | 68.69207 | 38816 ft | 499 kts | 117° |
| 2026-05-06 13:03 | 19.83488 | 68.75783 | 38816 ft | 499 kts | 117° |
| 2026-05-06 13:03 | 19.80354 | 68.82350 | 38815 ft | 498 kts | 117° |
| 2026-05-06 13:04 | 19.77218 | 68.88913 | 38817 ft | 498 kts | 117° |
| 2026-05-06 13:04 | 19.74082 | 68.95470 | 38813 ft | 498 kts | 117° |
| 2026-05-06 13:05 | 19.70965 | 69.01979 | 38818 ft | 497 kts | 117° |
| 2026-05-06 13:05 | 19.67824 | 69.08529 | 38821 ft | 497 kts | 117° |
| 2026-05-06 13:06 | 19.64687 | 69.15066 | 38816 ft | 497 kts | 117° |
| 2026-05-06 13:06 | 19.61543 | 69.21608 | 38814 ft | 497 kts | 117° |
| 2026-05-06 13:07 | 19.58411 | 69.28122 | 38814 ft | 497 kts | 117° |
| 2026-05-06 13:07 | 19.55262 | 69.34660 | 38819 ft | 497 kts | 117° |
| 2026-05-06 13:08 | 19.52125 | 69.41197 | 38814 ft | 498 kts | 117° |
| 2026-05-06 13:08 | 19.48990 | 69.47753 | 38816 ft | 498 kts | 117° |
| 2026-05-06 13:09 | 19.45855 | 69.54300 | 38820 ft | 498 kts | 117° |
| 2026-05-06 13:09 | 19.42717 | 69.60842 | 38815 ft | 498 kts | 117° |
| 2026-05-06 13:10 | 19.39573 | 69.67386 | 38814 ft | 498 kts | 117° |
| 2026-05-06 13:10 | 19.36447 | 69.73887 | 38813 ft | 498 kts | 117° |
| 2026-05-06 13:11 | 19.33303 | 69.80417 | 38816 ft | 497 kts | 117° |
| 2026-05-06 13:11 | 19.30161 | 69.86937 | 38816 ft | 497 kts | 117° |
| 2026-05-06 13:12 | 19.27015 | 69.93458 | 38813 ft | 497 kts | 117° |
| 2026-05-06 13:12 | 19.23868 | 69.99975 | 38811 ft | 496 kts | 117° |
| 2026-05-06 13:13 | 19.20721 | 70.06483 | 38815 ft | 496 kts | 117° |
| 2026-05-06 13:13 | 19.17597 | 70.12940 | 38810 ft | 496 kts | 117° |
| 2026-05-06 13:14 | 19.14677 | 70.19591 | 38800 ft | 496 kts | 108° |
| 2026-05-06 13:14 | 19.13267 | 70.26657 | 38810 ft | 495 kts | 94° |
| 2026-05-06 13:15 | 19.13118 | 70.33922 | 38814 ft | 494 kts | 89° |
| 2026-05-06 13:15 | 19.13120 | 70.41207 | 38807 ft | 495 kts | 89° |
| 2026-05-06 13:16 | 19.13082 | 70.48493 | 38811 ft | 496 kts | 90° |
| 2026-05-06 13:16 | 19.13016 | 70.54552 | 38812 ft | 496 kts | 90° |
| 2026-05-06 13:17 | 19.12920 | 70.61854 | 38805 ft | 497 kts | 90° |
| 2026-05-06 13:17 | 19.12819 | 70.69164 | 38799 ft | 497 kts | 90° |
| 2026-05-06 13:18 | 19.12718 | 70.76470 | 38799 ft | 497 kts | 90° |
| 2026-05-06 13:18 | 19.12615 | 70.83790 | 38801 ft | 497 kts | 90° |
| 2026-05-06 13:19 | 19.12510 | 70.91101 | 38806 ft | 498 kts | 90° |
| 2026-05-06 13:19 | 19.12402 | 70.98424 | 38800 ft | 498 kts | 90° |
| 2026-05-06 13:20 | 19.12290 | 71.05747 | 38802 ft | 498 kts | 90° |
| 2026-05-06 13:20 | 19.12176 | 71.13069 | 38803 ft | 498 kts | 90° |
| 2026-05-06 13:21 | 19.12059 | 71.20346 | 38794 ft | 498 kts | 90° |
| 2026-05-06 13:21 | 19.11939 | 71.27677 | 38795 ft | 498 kts | 90° |
| 2026-05-06 13:22 | 19.11816 | 71.34997 | 38799 ft | 498 kts | 90° |
| 2026-05-06 13:22 | 19.11690 | 71.42332 | 38800 ft | 498 kts | 90° |
| 2026-05-06 13:23 | 19.11561 | 71.49671 | 38796 ft | 499 kts | 90° |
| 2026-05-06 13:23 | 19.11430 | 71.56950 | 38792 ft | 499 kts | 90° |
| 2026-05-06 13:24 | 19.11295 | 71.64292 | 38792 ft | 499 kts | 90° |
| 2026-05-06 13:24 | 19.11157 | 71.71642 | 38793 ft | 500 kts | 90° |
| 2026-05-06 13:25 | 19.11016 | 71.78997 | 38790 ft | 500 kts | 91° |
| 2026-05-06 13:25 | 19.10872 | 71.86351 | 38783 ft | 500 kts | 91° |
| 2026-05-06 13:26 | 19.10726 | 71.93700 | 38788 ft | 500 kts | 91° |
| 2026-05-06 13:26 | 19.10576 | 72.01055 | 38783 ft | 500 kts | 91° |
| 2026-05-06 13:27 | 19.10424 | 72.08356 | 38782 ft | 500 kts | 91° |
| 2026-05-06 13:27 | 19.10269 | 72.15701 | 38772 ft | 499 kts | 91° |
| 2026-05-06 13:28 | 19.10111 | 72.23042 | 38769 ft | 499 kts | 91° |
| 2026-05-06 13:28 | 19.09950 | 72.30389 | 38773 ft | 499 kts | 91° |
| 2026-05-06 13:29 | 19.09786 | 72.37735 | 38766 ft | 499 kts | 91° |
| 2026-05-06 13:29 | 19.09619 | 72.45074 | 38763 ft | 499 kts | 91° |
| 2026-05-06 13:30 | 19.09449 | 72.52397 | 38762 ft | 498 kts | 91° |
| 2026-05-06 13:30 | 19.09277 | 72.59727 | 38759 ft | 498 kts | 91° |
| 2026-05-06 13:31 | 19.09103 | 72.66993 | 38749 ft | 498 kts | 91° |
| 2026-05-06 13:31 | 19.08925 | 72.74314 | 38751 ft | 498 kts | 91° |
| 2026-05-06 13:32 | 19.08738 | 72.81646 | 38750 ft | 498 kts | 93° |
| 2026-05-06 13:32 | 19.07469 | 72.88835 | 38782 ft | 498 kts | 108° |
| 2026-05-06 13:33 | 19.04645 | 72.95522 | 38781 ft | 498 kts | 119° |
| 2026-05-06 13:33 | 19.01285 | 73.01931 | 38782 ft | 499 kts | 120° |
| 2026-05-06 13:34 | 18.97936 | 73.08353 | 38784 ft | 499 kts | 119° |
| 2026-05-06 13:34 | 18.94651 | 73.14772 | 38793 ft | 500 kts | 119° |
| 2026-05-06 13:35 | 18.91358 | 73.21240 | 38803 ft | 500 kts | 119° |
| 2026-05-06 13:35 | 18.88056 | 73.27709 | 38811 ft | 500 kts | 119° |
| 2026-05-06 13:36 | 18.84756 | 73.34164 | 38818 ft | 499 kts | 119° |
| 2026-05-06 13:36 | 18.81460 | 73.40605 | 38825 ft | 499 kts | 119° |
| 2026-05-06 13:37 | 18.78307 | 73.47142 | 38827 ft | 499 kts | 116° |
| 2026-05-06 13:37 | 18.75387 | 73.53781 | 38835 ft | 498 kts | 115° |
| 2026-05-06 13:38 | 18.72454 | 73.60403 | 38842 ft | 498 kts | 116° |
| 2026-05-06 13:38 | 18.69482 | 73.66993 | 38840 ft | 497 kts | 116° |
| 2026-05-06 13:39 | 18.66513 | 73.73538 | 38840 ft | 498 kts | 116° |
| 2026-05-06 13:39 | 18.63525 | 73.80125 | 38836 ft | 498 kts | 116° |
| 2026-05-06 13:40 | 18.60536 | 73.86715 | 38833 ft | 499 kts | 116° |
| 2026-05-06 13:40 | 18.57550 | 73.93319 | 38830 ft | 499 kts | 115° |
| 2026-05-06 13:41 | 18.54661 | 73.99981 | 38824 ft | 500 kts | 115° |
| 2026-05-06 13:41 | 18.51800 | 74.06659 | 38818 ft | 500 kts | 115° |
| 2026-05-06 13:42 | 18.48919 | 74.13341 | 38813 ft | 500 kts | 115° |
| 2026-05-06 13:42 | 18.46026 | 74.20012 | 38811 ft | 500 kts | 115° |
| 2026-05-06 13:43 | 18.43125 | 74.26690 | 38805 ft | 500 kts | 115° |
| 2026-05-06 13:43 | 18.40245 | 74.33315 | 38806 ft | 500 kts | 115° |
| 2026-05-06 13:44 | 18.37349 | 74.39970 | 38796 ft | 500 kts | 115° |
| 2026-05-06 13:44 | 18.34452 | 74.46621 | 38794 ft | 499 kts | 115° |
| 2026-05-06 13:45 | 18.31557 | 74.53259 | 38790 ft | 498 kts | 115° |
| 2026-05-06 13:45 | 18.27217 | 74.63199 | 38787 ft | 498 kts | 115° |
| 2026-05-06 13:46 | 18.24326 | 74.69810 | 38785 ft | 498 kts | 115° |
| 2026-05-06 13:46 | 18.21443 | 74.76436 | 38778 ft | 497 kts | 115° |
| 2026-05-06 13:47 | 18.18593 | 74.83018 | 38787 ft | 498 kts | 115° |
| 2026-05-06 13:47 | 18.15723 | 74.89637 | 38783 ft | 498 kts | 115° |
| 2026-05-06 13:48 | 18.12845 | 74.96265 | 38783 ft | 498 kts | 115° |
| 2026-05-06 13:48 | 18.09960 | 75.02896 | 38785 ft | 498 kts | 115° |
| 2026-05-06 13:49 | 18.07077 | 75.09517 | 38783 ft | 498 kts | 115° |
| 2026-05-06 13:49 | 18.04189 | 75.16139 | 38784 ft | 498 kts | 115° |
| 2026-05-06 13:50 | 18.01298 | 75.22762 | 38790 ft | 498 kts | 115° |
| 2026-05-06 13:50 | 17.98409 | 75.29375 | 38790 ft | 498 kts | 115° |
| 2026-05-06 13:51 | 17.95516 | 75.35989 | 38788 ft | 498 kts | 115° |
| 2026-05-06 13:51 | 17.92621 | 75.42601 | 38790 ft | 498 kts | 115° |
| 2026-05-06 13:52 | 17.89728 | 75.49199 | 38791 ft | 498 kts | 115° |
| 2026-05-06 13:52 | 17.86835 | 75.55793 | 38796 ft | 497 kts | 115° |
| 2026-05-06 13:53 | 17.83958 | 75.62340 | 38796 ft | 497 kts | 115° |
| 2026-05-06 13:53 | 17.81056 | 75.68938 | 38801 ft | 497 kts | 115° |
| 2026-05-06 13:54 | 17.78155 | 75.75527 | 38805 ft | 497 kts | 115° |
| 2026-05-06 13:54 | 17.75250 | 75.82119 | 38803 ft | 497 kts | 115° |
| 2026-05-06 13:55 | 17.72344 | 75.88707 | 38801 ft | 497 kts | 115° |
| 2026-05-06 13:55 | 17.69456 | 75.95246 | 38805 ft | 497 kts | 115° |
| 2026-05-06 13:56 | 17.66549 | 76.01817 | 38805 ft | 497 kts | 116° |
| 2026-05-06 13:56 | 17.63625 | 76.08382 | 38803 ft | 497 kts | 116° |
| 2026-05-06 13:57 | 17.60693 | 76.14952 | 38808 ft | 497 kts | 116° |
| 2026-05-06 13:57 | 17.57761 | 76.21518 | 38808 ft | 497 kts | 116° |
| 2026-05-06 13:58 | 17.56291 | 76.24810 | 38423 ft | 504 kts | 116° |
| 2026-05-06 13:58 | 17.54794 | 76.28161 | 37644 ft | 508 kts | 116° |
| 2026-05-06 13:58 | 17.53297 | 76.31508 | 36914 ft | 506 kts | 116° |
| 2026-05-06 13:58 | 17.51804 | 76.34848 | 36170 ft | 506 kts | 116° |
| 2026-05-06 13:59 | 17.50314 | 76.38180 | 35405 ft | 506 kts | 116° |
| 2026-05-06 13:59 | 17.48821 | 76.41514 | 34789 ft | 503 kts | 116° |
| 2026-05-06 13:59 | 17.47341 | 76.44819 | 34205 ft | 500 kts | 116° |
| 2026-05-06 13:59 | 17.45867 | 76.48107 | 33614 ft | 497 kts | 116° |
| 2026-05-06 14:00 | 17.44397 | 76.51386 | 33017 ft | 494 kts | 116° |
| 2026-05-06 14:00 | 17.42941 | 76.54630 | 32443 ft | 490 kts | 116° |
| 2026-05-06 14:00 | 17.41497 | 76.57846 | 31908 ft | 487 kts | 116° |
| 2026-05-06 14:00 | 17.40063 | 76.61040 | 31380 ft | 483 kts | 116° |
| 2026-05-06 14:01 | 17.38652 | 76.64181 | 30837 ft | 480 kts | 116° |
| 2026-05-06 14:01 | 17.37235 | 76.67332 | 30307 ft | 478 kts | 115° |
| 2026-05-06 14:01 | 17.35822 | 76.70475 | 29734 ft | 475 kts | 115° |
| 2026-05-06 14:01 | 17.34418 | 76.73597 | 29128 ft | 473 kts | 115° |
| 2026-05-06 14:02 | 17.33021 | 76.76699 | 28553 ft | 469 kts | 115° |
| 2026-05-06 14:02 | 17.31699 | 76.79800 | 27999 ft | 465 kts | 109° |
| 2026-05-06 14:02 | 17.31042 | 76.83079 | 27449 ft | 456 kts | 92° |
| 2026-05-06 14:02 | 17.30916 | 76.86379 | 26968 ft | 452 kts | 91° |
| 2026-05-06 14:03 | 17.30814 | 76.89656 | 26453 ft | 449 kts | 91° |
| 2026-05-06 14:03 | 17.30703 | 76.92918 | 25941 ft | 447 kts | 91° |
| 2026-05-06 14:03 | 17.30630 | 76.94815 | 25646 ft | 446 kts | 91° |
| 2026-05-06 14:03 | 17.30491 | 76.98051 | 25117 ft | 445 kts | 92° |
| 2026-05-06 14:04 | 17.30338 | 77.01283 | 24611 ft | 443 kts | 92° |
| 2026-05-06 14:04 | 17.30177 | 77.04499 | 24160 ft | 440 kts | 92° |
| 2026-05-06 14:04 | 17.30014 | 77.07667 | 23829 ft | 432 kts | 92° |
| 2026-05-06 14:04 | 17.29845 | 77.10805 | 23441 ft | 432 kts | 92° |
| 2026-05-06 14:05 | 17.29672 | 77.13928 | 23112 ft | 427 kts | 92° |
| 2026-05-06 14:05 | 17.29500 | 77.17010 | 22770 ft | 422 kts | 92° |
| 2026-05-06 14:05 | 17.29332 | 77.20068 | 22385 ft | 419 kts | 91° |
| 2026-05-06 14:05 | 17.29168 | 77.23116 | 22019 ft | 424 kts | 91° |
| 2026-05-06 14:06 | 17.29009 | 77.26180 | 21913 ft | 421 kts | 92° |
| 2026-05-06 14:06 | 17.28857 | 77.29231 | 21864 ft | 416 kts | 92° |
| 2026-05-06 14:06 | 17.28710 | 77.32221 | 21198 ft | 407 kts | 92° |
| 2026-05-06 14:06 | 17.28565 | 77.35142 | 20246 ft | 398 kts | 92° |
| 2026-05-06 14:07 | 17.28420 | 77.38003 | 19229 ft | 390 kts | 92° |
| 2026-05-06 14:07 | 17.28274 | 77.40818 | 18178 ft | 384 kts | 92° |
| 2026-05-06 14:07 | 17.28128 | 77.43607 | 17178 ft | 399 kts | 92° |
| 2026-05-06 14:07 | 17.27974 | 77.46526 | 16718 ft | 406 kts | 92° |
| 2026-05-06 14:08 | 17.27819 | 77.49430 | 16198 ft | 392 kts | 92° |
| 2026-05-06 14:08 | 17.27669 | 77.52220 | 15721 ft | 375 kts | 92° |
| 2026-05-06 14:08 | 17.27525 | 77.54888 | 15274 ft | 359 kts | 92° |
| 2026-05-06 14:08 | 17.27387 | 77.57447 | 14849 ft | 345 kts | 92° |
| 2026-05-06 14:09 | 17.27254 | 77.59914 | 14435 ft | 334 kts | 92° |
| 2026-05-06 14:09 | 17.27124 | 77.62336 | 14056 ft | 336 kts | 92° |
| 2026-05-06 14:09 | 17.26991 | 77.64817 | 13638 ft | 348 kts | 92° |
| 2026-05-06 14:09 | 17.26852 | 77.67395 | 13158 ft | 360 kts | 92° |
| 2026-05-06 14:10 | 17.26708 | 77.70020 | 12702 ft | 361 kts | 92° |
| 2026-05-06 14:10 | 17.26565 | 77.72641 | 12236 ft | 360 kts | 92° |
| 2026-05-06 14:10 | 17.26418 | 77.75247 | 11802 ft | 358 kts | 92° |
| 2026-05-06 14:10 | 17.26235 | 77.77836 | 11369 ft | 356 kts | 93° |
| 2026-05-06 14:11 | 17.26032 | 77.80415 | 10931 ft | 355 kts | 93° |
| 2026-05-06 14:11 | 17.25827 | 77.82978 | 10502 ft | 353 kts | 93° |
| 2026-05-06 14:11 | 17.25627 | 77.85474 | 10327 ft | 343 kts | 93° |
| 2026-05-06 14:11 | 17.25431 | 77.87929 | 10175 ft | 334 kts | 92° |
| 2026-05-06 14:12 | 17.25233 | 77.90359 | 10097 ft | 334 kts | 92° |
| 2026-05-06 14:12 | 17.25032 | 77.92785 | 9981 ft | 334 kts | 92° |
| 2026-05-06 14:12 | 17.24831 | 77.95214 | 9754 ft | 331 kts | 92° |
| 2026-05-06 14:12 | 17.24643 | 77.97566 | 9293 ft | 317 kts | 92° |
| 2026-05-06 14:13 | 17.24470 | 77.99819 | 8731 ft | 304 kts | 92° |
| 2026-05-06 14:13 | 17.24312 | 78.01930 | 8502 ft | 279 kts | 92° |
| 2026-05-06 14:13 | 17.24166 | 78.03862 | 8298 ft | 257 kts | 92° |
| 2026-05-06 14:13 | 17.24029 | 78.05690 | 7731 ft | 254 kts | 92° |
| 2026-05-06 14:14 | 17.23891 | 78.07527 | 7240 ft | 250 kts | 93° |
| 2026-05-06 14:14 | 17.23757 | 78.09251 | 7234 ft | 229 kts | 93° |
| 2026-05-06 14:14 | 17.23630 | 78.10898 | 7196 ft | 227 kts | 93° |
| 2026-05-06 14:14 | 17.23500 | 78.12575 | 6960 ft | 230 kts | 94° |
| 2026-05-06 14:15 | 17.23371 | 78.14229 | 6724 ft | 227 kts | 94° |
| 2026-05-06 14:15 | 17.23244 | 78.15854 | 6424 ft | 223 kts | 94° |
| 2026-05-06 14:15 | 17.23119 | 78.17443 | 6158 ft | 214 kts | 95° |
| 2026-05-06 14:15 | 17.22999 | 78.18959 | 5905 ft | 204 kts | 94° |
| 2026-05-06 14:16 | 17.22884 | 78.20400 | 5768 ft | 195 kts | 95° |
| 2026-05-06 14:16 | 17.22735 | 78.21808 | 5665 ft | 193 kts | 96° |
| 2026-05-06 14:16 | 17.22649 | 78.23205 | 5569 ft | 191 kts | 92° |
| 2026-05-06 14:16 | 17.22636 | 78.24598 | 5496 ft | 192 kts | 90° |
| 2026-05-06 14:17 | 17.22648 | 78.26000 | 5432 ft | 196 kts | 89° |
| 2026-05-06 14:17 | 17.22666 | 78.27396 | 5178 ft | 190 kts | 89° |
| 2026-05-06 14:17 | 17.22686 | 78.28725 | 4872 ft | 176 kts | 90° |
| 2026-05-06 14:17 | 17.22703 | 78.29971 | 4333 ft | 167 kts | 90° |
| 2026-05-06 14:18 | 17.22719 | 78.31152 | 3885 ft | 150 kts | 90° |
| 2026-05-06 14:18 | 17.22733 | 78.32195 | 3683 ft | 143 kts | 89° |
| 2026-05-06 14:18 | 17.22747 | 78.33216 | 3597 ft | 141 kts | 88° |
| 2026-05-06 14:18 | 17.22761 | 78.34242 | 3611 ft | 143 kts | 89° |
| 2026-05-06 14:19 | 17.22773 | 78.35313 | 3454 ft | 149 kts | 88° |
| 2026-05-06 14:19 | 17.22779 | 78.36387 | 3120 ft | 145 kts | 89° |
| 2026-05-06 14:19 | 17.22780 | 78.37420 | 2765 ft | 142 kts | 89° |
| 2026-05-06 14:19 | 17.22778 | 78.38437 | 2418 ft | 132 kts | 91° |
| 2026-05-06 14:20 | 17.22781 | 78.39401 | 2245 ft | 135 kts | 92° |
| 2026-05-06 14:20 | 17.22819 | 78.40401 | 2324 ft | 143 kts | 89° |
| 2026-05-06 14:20 | 17.22866 | 78.41483 | 2035 ft | 146 kts | 90° |
| 2026-05-06 14:20 | 17.22863 | 78.42419 | 2000 ft | 108 kts | 86° |
| 2026-05-06 14:21 | 17.22882 | 78.43080 | 2007 ft | 83 kts | 89° |
| 2026-05-06 14:21 | 17.22891 | 78.43554 | 2018 ft | 49 kts | 88° |
| 2026-05-06 14:21 | 17.22903 | 78.43808 | 2017 ft | 31 kts | 79° |
| 2026-05-06 14:21 | 17.22965 | 78.43964 | 2032 ft | 12 kts | 59° |